Time;durP1;ratioP1;P1;durP2;ratioP2;P2;SDS_P1;SDS_P2;PMS_P1;PMS_P2;Temp;Humidity;BMP_temperature;BMP_pressure;BME280_temperature;BME280_humidity;BME280_pressure;Samples;Min_cycle;Max_cycle;Signal;HPM_P1;HPM_P2
2023/05/24 05:15:24;;;;;;;19.40;13.80;;;;;;;14.60;100.00;100726.58;104510;1284;600251;-65
2023/05/24 05:17:53;;;;;;;18.40;14.10;;;;;;;14.75;100.00;100727.27;106436;1258;62521;-66
2023/05/24 05:20:24;;;;;;;20.50;13.90;;;;;;;14.93;100.00;100726.21;106392;1257;61733;-67
2023/05/24 05:22:53;;;;;;;26.10;13.40;;;;;;;15.08;100.00;100726.37;106132;1260;72251;-66
2023/05/24 05:25:22;;;;;;;20.30;12.80;;;;;;;15.23;100.00;100722.42;106261;1257;62555;-65
2023/05/24 05:27:52;;;;;;;24.20;14.30;;;;;;;15.39;100.00;100720.93;106244;1258;441288;-64
2023/05/24 05:30:20;;;;;;;18.70;13.00;;;;;;;15.58;100.00;100720.23;106656;1254;74007;-66
2023/05/24 05:32:50;;;;;;;22.10;12.70;;;;;;;15.78;100.00;100723.82;106810;1262;63642;-67
2023/05/24 05:35:19;;;;;;;22.70;12.90;;;;;;;15.98;100.00;100723.99;107148;1249;58901;-66
2023/05/24 05:37:48;;;;;;;19.70;12.70;;;;;;;16.20;100.00;100722.87;106923;1259;60592;-68
2023/05/24 05:40:18;;;;;;;21.60;13.50;;;;;;;16.40;100.00;100723.13;107062;1255;60755;-66
2023/05/24 05:42:48;;;;;;;25.50;13.80;;;;;;;16.61;100.00;100725.83;106684;1259;61057;-71
2023/05/24 05:45:18;;;;;;;23.70;13.40;;;;;;;16.85;100.00;100722.52;106793;1247;72309;-67
2023/05/24 05:47:47;;;;;;;21.10;13.10;;;;;;;17.04;100.00;100727.45;106938;1248;58881;-66
2023/05/24 05:50:16;;;;;;;18.80;12.40;;;;;;;17.25;100.00;100726.98;106862;1247;59011;-65
2023/05/24 05:52:46;;;;;;;26.70;12.10;;;;;;;17.45;100.00;100733.02;106819;1258;72702;-65
2023/05/24 05:55:15;;;;;;;20.00;12.90;;;;;;;17.65;100.00;100732.56;107038;1249;72671;-68
2023/05/24 05:57:44;;;;;;;21.30;14.50;;;;;;;17.83;100.00;100733.75;106965;1253;70488;-66
2023/05/24 06:00:14;;;;;;;21.60;12.80;;;;;;;18.00;100.00;100732.71;106947;1249;63560;-67
2023/05/24 06:02:43;;;;;;;18.10;11.40;;;;;;;18.17;100.00;100737.11;106997;1251;58942;-69
2023/05/24 06:05:12;;;;;;;15.30;10.00;;;;;;;18.32;100.00;100735.39;107048;1248;59095;-68
2023/05/24 06:07:44;;;;;;;20.30;11.20;;;;;;;18.42;100.00;100735.41;106935;1248;62177;-68
2023/05/24 06:10:13;;;;;;;13.30;9.20;;;;;;;18.49;100.00;100740.42;106839;1254;72083;-69
2023/05/24 06:12:42;;;;;;;17.10;9.80;;;;;;;18.63;99.79;100738.48;107039;1248;60144;-68
2023/05/24 06:15:12;;;;;;;16.10;9.30;;;;;;;18.70;99.80;100740.53;106972;1249;74149;-68
2023/05/24 06:17:42;;;;;;;18.80;10.50;;;;;;;18.77;99.67;100745.58;106986;1248;62619;-64
2023/05/24 06:20:14;;;;;;;12.40;9.00;;;;;;;18.80;100.00;100751.83;107310;1247;62115;-71
2023/05/24 06:22:44;;;;;;;13.40;8.90;;;;;;;18.87;99.00;100752.33;106877;1248;72676;-65
2023/05/24 06:25:14;;;;;;;16.00;9.10;;;;;;;18.91;99.12;100752.27;106915;1249;62175;-65
2023/05/24 06:27:43;;;;;;;13.50;8.70;;;;;;;18.98;99.17;100755.36;106865;1247;70378;-64
2023/05/24 06:30:13;;;;;;;13.50;9.40;;;;;;;19.12;96.82;100751.72;107315;1252;73285;-65
2023/05/24 06:32:42;;;;;;;18.20;10.50;;;;;;;19.25;95.17;100748.98;107272;1244;58384;-65
2023/05/24 06:35:11;;;;;;;15.20;10.00;;;;;;;19.33;95.02;100745.42;107589;1241;58070;-65
2023/05/24 06:37:40;;;;;;;16.70;9.70;;;;;;;19.46;93.00;100743.85;107541;1242;61935;-65
2023/05/24 06:40:10;;;;;;;13.00;8.50;;;;;;;19.57;91.31;100743.16;107445;1241;61628;-65
2023/05/24 06:42:39;;;;;;;14.50;8.40;;;;;;;19.71;88.66;100742.65;107482;1247;69639;-67
2023/05/24 06:45:09;;;;;;;14.90;9.60;;;;;;;19.82;89.81;100740.36;107463;1242;73924;-68
2023/05/24 06:47:37;;;;;;;15.50;10.10;;;;;;;19.97;89.73;100738.92;107446;1242;61708;-68
2023/05/24 06:50:08;;;;;;;14.20;9.30;;;;;;;20.20;88.30;100737.77;107530;1241;61721;-68
2023/05/24 06:52:37;;;;;;;12.30;8.00;;;;;;;20.32;88.46;100740.27;107613;1238;72371;-69
2023/05/24 06:55:07;;;;;;;12.10;8.50;;;;;;;20.49;86.85;100738.79;107328;1238;70821;-69
2023/05/24 06:57:36;;;;;;;13.00;8.00;;;;;;;20.65;84.89;100736.77;107515;1242;70986;-68
2023/05/24 07:00:11;;;;;;;15.10;8.40;;;;;;;20.78;84.63;100740.52;107532;1242;73349;-68
2023/05/24 07:02:41;;;;;;;12.70;7.90;;;;;;;20.88;83.25;100743.05;107591;1242;59023;-68
2023/05/24 07:05:11;;;;;;;15.10;8.40;;;;;;;21.03;82.53;100743.13;107555;1241;61264;-67
2023/05/24 07:07:42;;;;;;;13.90;8.00;;;;;;;21.10;82.32;100741.91;107453;1241;62593;-70
2023/05/24 07:10:11;;;;;;;12.20;7.40;;;;;;;21.19;83.17;100743.89;107460;1242;73070;-68
2023/05/24 07:12:40;;;;;;;11.20;7.20;;;;;;;21.29;82.85;100739.24;107358;1246;60561;-68
2023/05/24 07:15:10;;;;;;;15.80;7.50;;;;;;;21.46;79.10;100742.68;107341;1242;63147;-68
2023/05/24 07:17:39;;;;;;;8.90;7.20;;;;;;;21.53;78.22;100744.41;107356;1242;61315;-69
2023/05/24 07:20:10;;;;;;;15.20;7.60;;;;;;;21.60;77.92;100746.70;107292;1242;60212;-68
2023/05/24 07:22:40;;;;;;;12.10;7.90;;;;;;;21.74;78.43;100751.73;107171;1242;73208;-72
2023/05/24 07:25:09;;;;;;;10.20;6.90;;;;;;;21.88;77.21;100750.65;107250;1241;61331;-73
2023/05/24 07:27:38;;;;;;;11.40;7.90;;;;;;;21.95;75.68;100752.92;107310;1253;61041;-68
2023/05/24 07:30:08;;;;;;;15.70;7.70;;;;;;;21.93;76.18;100748.43;107295;1249;72403;-69
2023/05/24 07:32:57;;;;;;;19.40;8.00;;;;;;;22.03;76.32;100749.55;107434;1242;61668;-70
2023/05/24 07:35:28;;;;;;;13.80;7.80;;;;;;;22.11;76.42;100748.37;107482;1241;59056;-70
2023/05/24 07:37:57;;;;;;;18.80;8.40;;;;;;;22.24;75.87;100744.70;107546;1252;72219;-68
2023/05/24 07:40:26;;;;;;;15.90;8.30;;;;;;;22.38;75.19;100745.02;107591;1243;61371;-70
2023/05/24 07:42:55;;;;;;;11.60;7.20;;;;;;;22.43;75.39;100745.70;107467;1249;69737;-68
2023/05/24 07:45:24;;;;;;;16.70;8.20;;;;;;;22.56;75.46;100747.86;107553;1249;73268;-67
2023/05/24 07:47:53;;;;;;;15.00;7.60;;;;;;;22.74;73.89;100744.14;107478;1243;60953;-68
2023/05/24 07:50:25;;;;;;;16.20;8.10;;;;;;;22.81;65.61;100745.94;107612;1243;59086;-70
2023/05/24 07:52:56;;;;;;;16.10;7.60;;;;;;;23.00;62.94;100749.82;107663;1242;62170;-68
2023/05/24 07:55:26;;;;;;;20.80;7.90;;;;;;;23.00;60.78;100748.59;107522;1245;72219;-69
2023/05/24 07:57:56;;;;;;;11.70;6.90;;;;;;;23.12;59.94;100746.53;107516;1248;69988;-67
2023/05/24 08:00:25;;;;;;;10.00;6.90;;;;;;;23.27;59.55;100745.30;107564;1242;73257;-74
2023/05/24 08:02:55;;;;;;;13.20;6.60;;;;;;;23.45;58.84;100745.85;107545;1244;59004;-69
2023/05/24 08:05:25;;;;;;;11.70;5.80;;;;;;;23.49;56.86;100743.80;107541;1242;57251;-68
2023/05/24 08:07:54;;;;;;;10.40;5.50;;;;;;;23.57;55.45;100744.66;107376;1250;71864;-68
2023/05/24 08:10:24;;;;;;;12.30;5.40;;;;;;;23.65;53.76;100739.60;107612;1238;61165;-69
2023/05/24 08:12:54;;;;;;;11.10;4.90;;;;;;;23.81;53.57;100741.20;107463;1252;69816;-68
2023/05/24 08:15:24;;;;;;;7.50;4.70;;;;;;;23.95;52.68;100737.33;107430;1243;74727;-68
2023/05/24 08:17:54;;;;;;;9.00;4.90;;;;;;;24.06;51.89;100732.70;107526;1245;58000;-69
2023/05/24 08:20:23;;;;;;;9.60;5.30;;;;;;;24.24;52.60;100733.84;107403;1252;58266;-66
2023/05/24 08:22:52;;;;;;;10.90;5.70;;;;;;;24.40;52.73;100735.81;107481;1243;61218;-68
2023/05/24 08:25:21;;;;;;;10.80;5.50;;;;;;;24.64;52.16;100738.43;107378;1253;62563;-68
2023/05/24 08:27:51;;;;;;;9.40;5.80;;;;;;;24.82;49.23;100737.80;107458;1250;61450;-68
2023/05/24 08:30:20;;;;;;;7.30;5.20;;;;;;;24.99;47.46;100745.88;107358;1245;64234;-67
2023/05/24 08:32:51;;;;;;;9.00;4.60;;;;;;;25.21;45.65;100737.32;107515;1242;59046;-66
2023/05/24 08:35:20;;;;;;;6.70;4.50;;;;;;;25.33;44.94;100740.52;107459;1241;58119;-72
2023/05/24 08:37:49;;;;;;;7.40;4.70;;;;;;;25.52;46.28;100736.35;107462;1247;62959;-67
2023/05/24 08:40:19;;;;;;;10.00;4.50;;;;;;;25.73;43.34;100738.91;107420;1252;71053;-67
2023/05/24 08:42:49;;;;;;;6.60;3.90;;;;;;;25.72;41.80;100740.30;107394;1245;60372;-68
2023/05/24 08:45:21;;;;;;;7.80;4.20;;;;;;;25.50;41.04;100737.58;107395;1241;65110;-68
2023/05/24 08:47:51;;;;;;;11.90;5.00;;;;;;;25.55;41.67;100732.92;107440;1241;59022;-67
2023/05/24 08:50:21;;;;;;;8.70;4.10;;;;;;;25.65;41.96;100735.63;107445;1241;62221;-71
2023/05/24 08:52:51;;;;;;;8.80;4.50;;;;;;;25.80;41.04;100732.26;107440;1241;74376;-71
2023/05/24 08:55:21;;;;;;;6.90;4.10;;;;;;;25.98;40.76;100729.55;107407;1242;61947;-74
2023/05/24 08:57:51;;;;;;;4.90;3.40;;;;;;;26.07;39.59;100728.81;107433;1245;68687;-71
2023/05/24 09:00:21;;;;;;;7.10;3.90;;;;;;;26.07;38.61;100729.92;107374;1242;62974;-72
2023/05/24 09:02:52;;;;;;;7.90;4.20;;;;;;;26.27;38.87;100731.20;107346;1249;58964;-70
2023/05/24 09:05:24;;;;;;;7.60;3.50;;;;;;;26.38;38.21;100734.42;107223;1245;62390;-69
2023/05/24 09:07:54;;;;;;;5.70;4.00;;;;;;;26.45;38.35;100733.02;107390;1242;62546;-68
2023/05/24 09:10:26;;;;;;;6.20;3.80;;;;;;;26.67;38.02;100734.46;107159;1249;60907;-69
2023/05/24 09:13:02;;;;;;;6.70;3.80;;;;;;;26.53;37.39;100738.17;107394;1253;70864;-73
2023/05/24 09:15:31;;;;;;;7.80;4.00;;;;;;;26.47;37.73;100737.75;107351;1253;73029;-70
2023/05/24 09:18:00;;;;;;;7.40;3.80;;;;;;;26.52;38.11;100742.25;107544;1242;59056;-70
2023/05/24 09:20:32;;;;;;;8.10;3.70;;;;;;;26.84;37.53;100742.17;107631;1241;59083;-69
2023/05/24 09:23:03;;;;;;;8.10;3.90;;;;;;;26.98;35.57;100739.73;107587;1252;61708;-65
2023/05/24 09:25:32;;;;;;;7.90;4.10;;;;;;;26.89;35.52;100740.05;107537;1252;61969;-65
2023/05/24 09:28:07;;;;;;;5.90;3.30;;;;;;;26.92;33.98;100740.14;107557;1243;59425;-66
2023/05/24 09:30:36;;;;;;;7.30;3.10;;;;;;;27.16;32.95;100733.40;107543;1247;73592;-67
2023/05/24 09:33:07;;;;;;;6.90;3.30;;;;;;;27.48;32.79;100729.67;107612;1242;61444;-69
2023/05/24 09:35:42;;;;;;;7.70;3.20;;;;;;;27.50;31.04;100729.41;107542;1252;57428;-68
2023/05/24 09:38:18;;;;;;;8.10;3.10;;;;;;;27.84;31.91;100731.92;107431;1252;74017;-66
2023/05/24 09:41:06;;;;;;;6.20;2.90;;;;;;;27.53;30.59;100729.98;107591;1241;62398;-65
2023/05/24 09:43:47;;;;;;;4.30;2.90;;;;;;;27.32;29.68;100726.08;107489;1238;70520;-67
2023/05/24 09:46:18;;;;;;;5.90;3.20;;;;;;;27.14;29.76;100718.85;107486;1242;73468;-66
2023/05/24 09:49:02;;;;;;;7.00;3.20;;;;;;;27.19;30.03;100713.48;107545;1243;61496;-66
2023/05/24 09:51:37;;;;;;;5.30;3.50;;;;;;;27.58;30.78;100715.86;107515;1248;60973;-64
2023/05/24 09:54:08;;;;;;;6.40;3.40;;;;;;;27.57;30.62;100715.79;107581;1243;74160;-64
2023/05/24 09:56:39;;;;;;;9.00;3.10;;;;;;;27.32;29.89;100715.92;107581;1242;62942;-65
2023/05/24 09:59:08;;;;;;;4.50;3.00;;;;;;;27.06;30.34;100716.58;107247;1245;61870;-66
2023/05/24 10:01:38;;;;;;;5.00;3.30;;;;;;;26.83;29.84;100715.50;107289;1241;65847;-66
2023/05/24 10:04:07;;;;;;;9.70;3.60;;;;;;;26.99;30.35;100714.28;107282;1243;58935;-65
2023/05/24 10:06:38;;;;;;;5.60;3.10;;;;;;;27.20;29.66;100715.83;107194;1244;58949;-68
2023/05/24 10:09:08;;;;;;;6.60;3.30;;;;;;;27.29;27.87;100712.68;107391;1252;62490;-67
2023/05/24 10:11:38;;;;;;;6.00;2.90;;;;;;;27.37;27.85;100717.64;107365;1252;71901;-68
2023/05/24 10:14:08;;;;;;;6.60;3.60;;;;;;;27.40;28.47;100721.34;107295;1252;61470;-70
2023/05/24 10:16:37;;;;;;;11.90;3.90;;;;;;;27.25;29.45;100718.86;107368;1251;74537;-69
2023/05/24 10:19:07;;;;;;;6.70;3.60;;;;;;;27.19;30.55;100713.15;107291;1244;59032;-72
2023/05/24 10:21:39;;;;;;;6.40;3.50;;;;;;;27.51;30.82;100715.20;107293;1243;59059;-69
2023/05/24 10:24:10;;;;;;;9.50;3.60;;;;;;;28.05;30.23;100715.39;107278;1242;63932;-69
2023/05/24 10:26:41;;;;;;;7.10;3.40;;;;;;;28.51;30.13;100710.95;107359;1241;61368;-68
2023/05/24 10:29:20;;;;;;;6.90;3.50;;;;;;;29.11;30.39;100709.41;107515;1251;60266;-68
2023/05/24 10:31:52;;;;;;;5.70;3.30;;;;;;;29.15;28.30;100706.53;107404;1252;64101;-72
2023/05/24 10:34:21;;;;;;;5.90;3.60;;;;;;;29.54;27.56;100707.12;107465;1244;61789;-70
2023/05/24 10:36:51;;;;;;;4.40;3.10;;;;;;;29.89;26.35;100706.40;107518;1242;58610;-69
2023/05/24 10:39:21;;;;;;;6.90;3.50;;;;;;;30.12;25.72;100701.92;107383;1240;72914;-68
2023/05/24 10:41:50;;;;;;;4.70;2.90;;;;;;;30.43;25.72;100703.05;107496;1250;61963;-70
2023/05/24 10:44:20;;;;;;;5.90;3.10;;;;;;;30.24;24.84;100698.70;107516;1243;70236;-68
2023/05/24 10:47:27;;;;;;;5.70;2.90;;;;;;;30.89;25.27;100701.96;107442;1252;74294;-68
2023/05/24 10:49:58;;;;;;;6.10;3.30;;;;;;;30.96;24.97;100701.27;107141;1252;59081;-69
2023/05/24 10:52:35;;;;;;;6.50;3.50;;;;;;;30.81;23.52;100695.55;107149;1246;60866;-69
2023/05/24 10:55:10;;;;;;;5.90;3.00;;;;;;;31.16;22.71;100690.15;107222;1253;72812;-69
2023/05/24 10:57:40;;;;;;;7.20;3.20;;;;;;;30.96;21.85;100690.00;107219;1241;61414;-70
2023/05/24 11:00:24;;;;;;;6.70;3.10;;;;;;;31.13;23.30;100685.88;107237;1243;60029;-70
2023/05/24 11:03:07;;;;;;;9.20;3.10;;;;;;;31.55;23.47;100684.40;107145;1252;73955;-68
2023/05/24 11:05:49;;;;;;;6.40;3.30;;;;;;;31.53;23.84;100686.84;107320;1241;59070;-69
2023/05/24 11:08:45;;;;;;;4.50;2.60;;;;;;;31.84;23.55;100685.20;107456;1252;58957;-68
2023/05/24 11:11:19;;;;;;;3.60;2.90;;;;;;;32.11;23.29;100680.61;107487;1242;61980;-68
2023/05/24 11:13:58;;;;;;;5.90;3.10;;;;;;;31.86;22.32;100676.25;107443;1242;73214;-68
2023/05/24 11:16:38;;;;;;;5.10;2.80;;;;;;;31.90;22.32;100665.45;107272;1251;70080;-69
2023/05/24 11:19:23;;;;;;;6.00;3.00;;;;;;;32.35;22.03;100669.15;107441;1242;65881;-69
2023/05/24 11:21:57;;;;;;;4.20;3.00;;;;;;;32.48;22.12;100666.50;107368;1241;59027;-69
2023/05/24 11:24:27;;;;;;;7.80;3.10;;;;;;;32.72;22.01;100666.38;107404;1242;58699;-69
2023/05/24 11:26:58;;;;;;;5.80;3.20;;;;;;;32.67;21.56;100668.07;107336;1245;64731;-69
2023/05/24 11:29:31;;;;;;;3.80;2.90;;;;;;;32.43;21.31;100663.91;107286;1245;61876;-70
2023/05/24 11:32:03;;;;;;;5.00;2.70;;;;;;;32.06;20.84;100664.06;107361;1250;69689;-68
2023/05/24 11:34:33;;;;;;;3.80;2.70;;;;;;;32.28;21.40;100660.19;107395;1241;74340;-70
2023/05/24 11:37:04;;;;;;;4.40;2.60;;;;;;;32.52;21.02;100656.75;107429;1248;60956;-69
2023/05/24 11:39:37;;;;;;;5.70;3.00;;;;;;;32.51;20.49;100659.26;107470;1253;62102;-70
2023/05/24 11:42:08;;;;;;;4.40;3.10;;;;;;;31.98;20.97;100662.08;107477;1241;64556;-72
2023/05/24 11:44:37;;;;;;;5.90;3.20;;;;;;;32.12;20.94;100657.42;107509;1251;72197;-71
2023/05/24 11:47:07;;;;;;;4.60;2.60;;;;;;;32.35;21.80;100659.34;107417;1251;59798;-67
2023/05/24 11:49:36;;;;;;;4.30;2.80;;;;;;;33.25;21.80;100662.11;107435;1242;71318;-69
2023/05/24 11:52:06;;;;;;;6.10;2.80;;;;;;;33.09;21.42;100662.42;107439;1242;59021;-68
2023/05/24 11:54:37;;;;;;;5.30;2.80;;;;;;;32.90;21.39;100658.20;107499;1240;58938;-68
2023/05/24 11:57:11;;;;;;;5.60;2.60;;;;;;;33.00;21.41;100654.21;107432;1243;62865;-68
2023/05/24 11:59:40;;;;;;;6.30;2.90;;;;;;;33.27;21.32;100650.21;107309;1245;60976;-68
2023/05/24 12:02:09;;;;;;;5.70;3.10;;;;;;;32.76;20.98;100639.64;107453;1252;69588;-69
2023/05/24 12:04:38;;;;;;;4.70;2.90;;;;;;;32.11;21.40;100640.73;107321;1245;74499;-67
2023/05/24 12:07:14;;;;;;;4.00;2.60;;;;;;;31.13;22.29;100637.88;107524;1248;59549;-66
2023/05/24 12:09:43;;;;;;;5.90;2.70;;;;;;;31.60;22.24;100637.95;107591;1242;57469;-68
2023/05/24 12:12:12;;;;;;;7.70;3.10;;;;;;;31.95;21.82;100631.02;107211;1244;62943;-66
2023/05/24 12:14:41;;;;;;;5.20;3.50;;;;;;;32.39;21.62;100632.95;107455;1241;61486;-68
2023/05/24 12:17:17;;;;;;;6.40;2.80;;;;;;;33.79;21.50;100633.90;107310;1252;69475;-65
2023/05/24 12:19:50;;;;;;;3.50;2.40;;;;;;;33.80;20.43;100627.80;107236;1241;73361;-66
2023/05/24 12:22:26;;;;;;;6.70;2.90;;;;;;;34.22;20.92;100634.90;107326;1241;60654;-63
2023/05/24 12:24:55;;;;;;;5.70;2.90;;;;;;;34.45;20.24;100632.80;107431;1241;61010;-63
2023/05/24 12:27:30;;;;;;;5.00;2.80;;;;;;;34.68;20.04;100628.96;107304;1245;64551;-63
2023/05/24 12:30:06;;;;;;;4.10;2.70;;;;;;;33.41;20.08;100627.98;107388;1246;63912;-63
2023/05/24 12:32:35;;;;;;;6.30;2.90;;;;;;;33.26;20.39;100624.94;107508;1241;60361;-67
2023/05/24 12:35:05;;;;;;;5.50;2.60;;;;;;;33.63;20.02;100627.22;107336;1245;62710;-67
2023/05/24 12:37:34;;;;;;;4.80;2.80;;;;;;;33.78;19.96;100623.98;107518;1238;58742;-67
2023/05/24 12:40:20;;;;;;;5.30;2.80;;;;;;;34.60;20.11;100630.41;107415;1242;59135;-66
2023/05/24 12:42:54;;;;;;;4.10;2.70;;;;;;;34.35;19.84;100625.05;107544;1250;62916;-66
2023/05/24 12:45:25;;;;;;;6.60;2.70;;;;;;;34.69;19.36;100627.57;107527;1239;71566;-66
2023/05/24 12:47:56;;;;;;;4.70;2.50;;;;;;;35.51;18.81;100628.33;107478;1241;60777;-64
2023/05/24 12:50:26;;;;;;;3.40;2.40;;;;;;;35.01;19.08;100632.23;107582;1249;64178;-66
2023/05/24 12:52:55;;;;;;;6.00;2.80;;;;;;;34.86;19.40;100632.73;107594;1241;57617;-65
2023/05/24 12:55:26;;;;;;;7.80;3.00;;;;;;;33.89;20.01;100628.57;107408;1242;59028;-66
2023/05/24 12:57:57;;;;;;;7.00;3.20;;;;;;;34.63;19.77;100633.28;107460;1241;72687;-68
2023/05/24 13:00:27;;;;;;;4.00;2.50;;;;;;;35.00;19.37;100630.60;107510;1241;61163;-67
2023/05/24 13:02:59;;;;;;;4.60;2.50;;;;;;;35.10;19.44;100629.05;107522;1252;59303;-64
2023/05/24 13:05:28;;;;;;;15.10;3.10;;;;;;;34.66;19.61;100634.07;107501;1241;62483;-64
2023/05/24 13:07:58;;;;;;;12.90;3.50;;;;;;;33.35;21.04;100631.89;107569;1241;61233;-65
2023/05/24 13:10:27;;;;;;;5.60;2.60;;;;;;;33.10;21.24;100627.86;107523;1241;59107;-68
2023/05/24 13:12:56;;;;;;;4.80;2.70;;;;;;;34.27;20.04;100632.07;107400;1244;63236;-67
2023/05/24 13:15:26;;;;;;;7.30;2.80;;;;;;;34.95;19.80;100629.85;107576;1242;60874;-67
2023/05/24 13:17:55;;;;;;;5.00;2.90;;;;;;;34.37;20.04;100626.86;107619;1252;62025;-68
2023/05/24 13:20:24;;;;;;;5.80;2.90;;;;;;;34.23;20.34;100632.30;107306;1246;74307;-67
2023/05/24 13:22:53;;;;;;;4.40;3.00;;;;;;;34.83;19.90;100626.52;107578;1241;59043;-67
2023/05/24 13:25:22;;;;;;;4.70;2.80;;;;;;;34.58;19.56;100627.66;107397;1246;58987;-68
2023/05/24 13:27:51;;;;;;;5.80;2.90;;;;;;;34.20;19.92;100621.40;107569;1248;62105;-66
2023/05/24 13:30:27;;;;;;;5.60;2.70;;;;;;;34.34;19.79;100619.14;107568;1252;73118;-66
2023/05/24 13:32:58;;;;;;;6.40;3.00;;;;;;;34.85;19.40;100619.02;107342;1251;70894;-66
2023/05/24 13:35:29;;;;;;;6.40;2.40;;;;;;;35.30;19.08;100614.60;107545;1242;64767;-65
2023/05/24 13:37:58;;;;;;;4.30;2.60;;;;;;;35.78;18.82;100614.13;107379;1251;58592;-66
2023/05/24 13:40:27;;;;;;;7.30;3.10;;;;;;;35.18;19.06;100606.33;107566;1251;59238;-66
2023/05/24 13:42:57;;;;;;;3.70;2.50;;;;;;;34.23;20.21;100610.30;107561;1241;72780;-65
2023/05/24 13:45:28;;;;;;;4.10;3.00;;;;;;;34.77;20.00;100616.40;107572;1248;72447;-71
2023/05/24 13:48:02;;;;;;;5.50;2.70;;;;;;;34.53;19.70;100617.33;107562;1241;71077;-66
2023/05/24 13:50:33;;;;;;;3.90;2.70;;;;;;;33.04;21.35;100618.37;107468;1241;73818;-65
2023/05/24 13:53:04;;;;;;;7.50;2.80;;;;;;;33.00;21.49;100613.64;107431;1243;62726;-65
2023/05/24 13:55:36;;;;;;;7.00;3.40;;;;;;;33.30;21.43;100611.79;107436;1241;61267;-66
2023/05/24 13:58:05;;;;;;;5.40;2.60;;;;;;;34.05;20.55;100613.24;107406;1238;72738;-67
2023/05/24 14:00:35;;;;;;;5.90;2.80;;;;;;;34.25;20.39;100616.74;107340;1241;61981;-67
2023/05/24 14:03:04;;;;;;;4.40;3.30;;;;;;;34.29;20.48;100618.41;107530;1251;70131;-67
2023/05/24 14:05:34;;;;;;;4.00;2.80;;;;;;;33.59;20.72;100620.02;107410;1241;73528;-66
2023/05/24 14:08:05;;;;;;;5.50;3.10;;;;;;;33.52;20.34;100619.84;107462;1242;59029;-66
2023/05/24 14:10:36;;;;;;;7.80;2.90;;;;;;;32.78;20.73;100617.79;107457;1244;59166;-66
2023/05/24 14:13:05;;;;;;;34.10;4.50;;;;;;;32.46;20.99;100617.92;107538;1241;72231;-66
2023/05/24 14:15:37;;;;;;;5.70;3.00;;;;;;;31.70;22.24;100622.98;107593;1240;63421;-68
2023/05/24 14:18:07;;;;;;;21.10;3.90;;;;;;;31.12;23.00;100625.35;107610;1241;70913;-66
2023/05/24 14:20:37;;;;;;;6.20;3.20;;;;;;;30.80;23.36;100632.63;107563;1241;62817;-68
2023/05/24 14:23:07;;;;;;;5.80;3.20;;;;;;;31.07;22.90;100630.13;107311;1241;58934;-65
2023/05/24 14:25:36;;;;;;;23.90;3.90;;;;;;;31.12;22.32;100631.86;107643;1242;58916;-65
2023/05/24 14:28:07;;;;;;;9.30;4.10;;;;;;;30.65;23.41;100636.68;107593;1243;61969;-66
2023/05/24 14:30:37;;;;;;;11.00;3.60;;;;;;;30.57;23.74;100638.17;107452;1242;61736;-66
2023/05/24 14:33:06;;;;;;;6.80;2.80;;;;;;;31.02;23.40;100638.79;107522;1241;60141;-67
2023/05/24 14:35:38;;;;;;;9.50;3.00;;;;;;;31.71;22.76;100637.14;107574;1249;62491;-65
2023/05/24 14:38:10;;;;;;;6.20;3.30;;;;;;;32.12;22.04;100635.83;107570;1242;61271;-65
2023/05/24 14:40:39;;;;;;;4.30;2.80;;;;;;;32.08;22.17;100637.95;107496;1248;59752;-67
2023/05/24 14:43:09;;;;;;;8.70;3.40;;;;;;;32.19;22.51;100640.27;107592;1241;64453;-67
2023/05/24 14:45:42;;;;;;;8.30;3.50;;;;;;;32.63;21.88;100640.83;107657;1252;62403;-69
2023/05/24 14:48:12;;;;;;;5.50;3.30;;;;;;;33.34;20.87;100638.45;107568;1242;69621;-67
2023/05/24 14:50:42;;;;;;;6.90;2.90;;;;;;;32.57;21.12;100637.27;107495;1252;63629;-67
2023/05/24 14:53:11;;;;;;;4.00;2.80;;;;;;;33.32;20.55;100638.91;107511;1248;60411;-67
2023/05/24 14:55:41;;;;;;;6.40;2.90;;;;;;;33.16;20.52;100637.85;107492;1241;58043;-68
2023/05/24 14:58:12;;;;;;;4.90;2.90;;;;;;;32.54;20.83;100634.54;107400;1248;73155;-68
2023/05/24 15:00:42;;;;;;;5.90;3.00;;;;;;;32.96;20.86;100637.08;107452;1250;61301;-68
2023/05/24 15:03:13;;;;;;;5.50;2.80;;;;;;;33.43;20.44;100637.51;107394;1238;70452;-68
2023/05/24 15:05:42;;;;;;;4.30;3.00;;;;;;;33.98;20.23;100633.38;107365;1251;62809;-68
2023/05/24 15:08:11;;;;;;;4.70;2.80;;;;;;;34.50;19.42;100633.35;107568;1247;58914;-68
2023/05/24 15:10:43;;;;;;;6.70;2.90;;;;;;;34.93;18.81;100636.25;107514;1248;60529;-68
2023/05/24 15:13:13;;;;;;;6.10;3.20;;;;;;;35.25;18.48;100635.58;107526;1238;72677;-68
2023/05/24 15:15:43;;;;;;;5.00;3.10;;;;;;;34.82;19.01;100637.58;107334;1238;70237;-68
2023/05/24 15:18:11;;;;;;;4.50;3.00;;;;;;;35.02;19.32;100639.44;107294;1244;70304;-68
2023/05/24 15:20:41;;;;;;;10.70;3.30;;;;;;;34.47;19.81;100637.11;107469;1242;64759;-68
2023/05/24 15:23:10;;;;;;;4.10;2.60;;;;;;;34.94;19.38;100634.69;107357;1241;59080;-67
2023/05/24 15:25:41;;;;;;;4.90;2.60;;;;;;;35.17;19.22;100635.30;107447;1241;61178;-69
2023/05/24 15:28:11;;;;;;;5.50;2.80;;;;;;;34.52;19.29;100638.50;107459;1242;63598;-70
2023/05/24 15:30:42;;;;;;;6.00;2.90;;;;;;;35.14;19.25;100638.76;107606;1251;72091;-68
2023/05/24 15:33:13;;;;;;;8.20;2.90;;;;;;;35.13;18.97;100636.33;107611;1251;60810;-67
2023/05/24 15:35:42;;;;;;;8.40;3.00;;;;;;;35.02;19.07;100639.99;107343;1249;62452;-67
2023/05/24 15:38:11;;;;;;;5.20;3.10;;;;;;;35.01;18.78;100636.02;107460;1241;59019;-67
2023/05/24 15:40:41;;;;;;;6.30;3.60;;;;;;;35.22;18.75;100635.09;107262;1241;59099;-68
2023/05/24 15:43:10;;;;;;;9.20;3.00;;;;;;;35.37;18.55;100635.01;107243;1252;63376;-68
2023/05/24 15:45:42;;;;;;;4.70;3.10;;;;;;;34.34;19.53;100639.07;107449;1241;71491;-66
2023/05/24 15:48:14;;;;;;;5.80;3.10;;;;;;;34.38;19.52;100641.41;107431;1250;59594;-66
2023/05/24 15:50:43;;;;;;;7.00;3.20;;;;;;;34.48;19.56;100638.77;107468;1241;63101;-66
2023/05/24 15:53:32;;;;;;;8.40;3.60;;;;;;;34.18;19.96;100639.50;107440;1238;58988;-67
2023/05/24 15:56:01;;;;;;;5.00;2.80;;;;;;;34.01;20.32;100640.04;107234;1242;59093;-67
2023/05/24 15:58:31;;;;;;;6.20;3.20;;;;;;;33.79;20.68;100640.36;107335;1251;73134;-69
2023/05/24 16:00:59;;;;;;;4.70;2.80;;;;;;;32.86;21.49;100639.49;107443;1241;72602;-66
2023/05/24 16:03:29;;;;;;;6.20;3.30;;;;;;;32.36;22.08;100640.54;107429;1238;62004;-67
2023/05/24 16:05:58;;;;;;;6.10;3.80;;;;;;;31.78;22.84;100638.95;107372;1249;71695;-67
2023/05/24 16:08:27;;;;;;;5.80;3.60;;;;;;;31.44;23.17;100640.10;107393;1241;59438;-69
2023/05/24 16:10:56;;;;;;;5.10;3.00;;;;;;;31.36;23.00;100641.22;107496;1251;57529;-68
2023/05/24 16:13:25;;;;;;;6.70;3.20;;;;;;;31.17;23.54;100641.28;107202;1244;63273;-69
2023/05/24 16:15:54;;;;;;;5.50;3.20;;;;;;;31.22;23.96;100643.51;107477;1246;60806;-68
2023/05/24 16:18:25;;;;;;;8.30;3.20;;;;;;;31.14;23.71;100643.50;107257;1244;61431;-68
2023/05/24 16:20:54;;;;;;;4.70;3.20;;;;;;;31.07;23.86;100641.07;107312;1251;64710;-68
2023/05/24 16:23:23;;;;;;;6.80;2.90;;;;;;;31.26;23.71;100642.48;107402;1241;60858;-68
2023/05/24 16:25:53;;;;;;;7.20;3.40;;;;;;;31.27;23.48;100642.84;107373;1242;61199;-68
2023/05/24 16:28:23;;;;;;;8.10;3.40;;;;;;;30.94;24.17;100645.91;107233;1248;73558;-68
2023/05/24 16:30:55;;;;;;;6.30;3.90;;;;;;;31.06;24.14;100649.48;107362;1242;60745;-68
2023/05/24 16:33:24;;;;;;;6.50;3.40;;;;;;;31.02;23.98;100650.77;107369;1242;61613;-66
2023/05/24 16:35:55;;;;;;;7.30;3.30;;;;;;;30.76;24.53;100652.73;107485;1248;63579;-67
2023/05/24 16:38:26;;;;;;;8.50;4.10;;;;;;;30.27;25.54;100655.44;107459;1241;58253;-67
2023/05/24 16:40:55;;;;;;;5.80;3.20;;;;;;;29.84;26.51;100653.59;107631;1251;58885;-67
2023/05/24 16:43:24;;;;;;;7.00;4.00;;;;;;;29.77;26.71;100649.00;107609;1241;73540;-67
2023/05/24 16:45:54;;;;;;;14.90;5.00;;;;;;;29.89;27.09;100650.90;107580;1241;72078;-67